Time;durP1;ratioP1;P1;durP2;ratioP2;P2;SDS_P1;SDS_P2;PMS_P1;PMS_P2;Temp;Humidity;BMP_temperature;BMP_pressure;BME280_temperature;BME280_humidity;BME280_pressure;Samples;Min_cycle;Max_cycle;Signal;HPM_P1;HPM_P2
2022/01/09 00:00:30;;;;;;;4.00;3.60;;;23.40;69.70;;;;;;6251287;28;82902;-69
2022/01/09 00:03:33;;;;;;;4.03;3.70;;;23.40;69.60;;;;;;6235430;28;84920;-70
2022/01/09 00:06:36;;;;;;;4.15;3.75;;;23.40;69.60;;;;;;6238563;28;84372;-69
2022/01/09 00:09:41;;;;;;;3.90;3.50;;;23.40;69.60;;;;;;6236446;28;83139;-70
2022/01/09 00:12:43;;;;;;;3.78;3.47;;;23.40;69.60;;;;;;6254082;27;83983;-70
2022/01/09 00:15:46;;;;;;;3.90;3.40;;;23.40;69.60;;;;;;6256409;28;84077;-70
2022/01/09 00:18:49;;;;;;;4.20;3.80;;;23.40;70.60;;;;;;6263690;28;83957;-69
2022/01/09 00:21:53;;;;;;;3.78;3.47;;;23.30;69.60;;;;;;6262292;28;82948;-70
2022/01/09 00:24:55;;;;;;;3.95;3.55;;;23.40;69.70;;;;;;6265024;28;81105;-70
2022/01/09 00:27:57;;;;;;;4.00;3.70;;;23.40;69.60;;;;;;6244001;28;83995;-69
2022/01/09 00:30:59;;;;;;;3.63;3.33;;;23.30;69.60;;;;;;6258669;27;84396;-68
2022/01/09 00:34:01;;;;;;;3.83;3.50;;;23.30;69.60;;;;;;6249623;28;84941;-69
2022/01/09 00:37:05;;;;;;;4.13;3.40;;;23.30;69.60;;;;;;6250768;28;84122;-70
2022/01/09 00:40:10;;;;;;;3.50;3.20;;;23.30;69.60;;;;;;6262743;27;84060;-69
2022/01/09 00:43:12;;;;;;;3.65;3.35;;;23.30;69.60;;;;;;6251055;28;83937;-70
2022/01/09 00:46:14;;;;;;;3.40;3.10;;;23.30;69.60;;;;;;6238079;28;82850;-68
2022/01/09 00:49:16;;;;;;;3.55;3.25;;;23.30;69.60;;;;;;6238631;28;84075;-70
2022/01/09 00:52:19;;;;;;;3.78;3.47;;;23.30;69.60;;;;;;6244982;28;84397;-68
2022/01/09 00:55:21;;;;;;;3.75;3.45;;;23.30;69.60;;;;;;6254109;28;83339;-70
2022/01/09 00:58:24;;;;;;;3.75;3.45;;;23.30;69.50;;;;;;6255608;27;83931;-69
2022/01/09 01:01:26;;;;;;;3.42;3.13;;;23.30;69.40;;;;;;6257441;28;84052;-70
2022/01/09 01:04:28;;;;;;;3.50;3.20;;;23.30;69.40;;;;;;6234720;28;85072;-70
2022/01/09 01:07:32;;;;;;;3.50;3.20;;;23.30;69.40;;;;;;6238295;28;83973;-69
2022/01/09 01:10:34;;;;;;;3.50;3.20;;;23.30;69.40;;;;;;6250676;28;84317;-69
2022/01/09 01:13:36;;;;;;;3.58;3.25;;;23.30;69.40;;;;;;6261896;28;84491;-68
2022/01/09 01:16:39;;;;;;;3.10;2.80;;;23.40;69.60;;;;;;6246302;28;82972;-69
2022/01/09 01:19:41;;;;;;;3.10;2.80;;;23.30;69.50;;;;;;6245966;28;83988;-70
2022/01/09 01:22:44;;;;;;;3.00;2.80;;;23.30;69.50;;;;;;6250999;28;82936;-70
2022/01/09 01:25:51;;;;;;;3.05;2.85;;;23.30;69.50;;;;;;6245798;28;83349;-70
2022/01/09 01:28:53;;;;;;;3.65;2.97;;;23.30;69.60;;;;;;6256050;28;83989;-70
2022/01/09 01:31:55;;;;;;;3.15;2.90;;;23.30;69.50;;;;;;6261640;27;84143;-69
2022/01/09 01:34:57;;;;;;;3.47;2.97;;;23.30;69.60;;;;;;6259530;28;84939;-68
2022/01/09 01:38:01;;;;;;;3.30;3.00;;;23.30;69.50;;;;;;6239658;28;83306;-70
2022/01/09 01:41:03;;;;;;;3.00;2.70;;;23.30;69.60;;;;;;6257219;27;84401;-70
2022/01/09 01:44:10;;;;;;;3.50;3.20;;;23.30;69.50;;;;;;6260662;28;84191;-68
2022/01/09 01:47:13;;;;;;;2.95;2.65;;;23.30;69.50;;;;;;6259716;28;84239;-69
2022/01/09 01:50:16;;;;;;;2.80;2.47;;;23.30;69.50;;;;;;6257368;28;82904;-69
2022/01/09 01:53:21;;;;;;;3.17;2.88;;;23.30;69.40;;;;;;6237819;28;84104;-69
2022/01/09 01:56:24;;;;;;;3.25;2.95;;;23.30;69.40;;;;;;6258188;28;83388;-69
2022/01/09 01:59:26;;;;;;;3.30;2.90;;;23.30;69.40;;;;;;6250242;28;84042;-70
2022/01/09 02:02:28;;;;;;;2.90;2.67;;;23.30;69.40;;;;;;6261188;28;84421;-70
2022/01/09 02:05:30;;;;;;;2.80;2.60;;;23.30;69.40;;;;;;6258031;28;85068;-70
2022/01/09 02:08:34;;;;;;;3.03;2.78;;;23.30;69.40;;;;;;6260614;28;84491;-69
2022/01/09 02:11:36;;;;;;;3.63;2.92;;;23.30;69.40;;;;;;6259216;27;83991;-69
2022/01/09 02:14:43;;;;;;;2.90;2.60;;;23.30;69.50;;;;;;6245826;27;82868;-69
2022/01/09 02:17:45;;;;;;;2.97;2.67;;;23.30;69.40;;;;;;6259997;28;82920;-69
2022/01/09 02:20:50;;;;;;;2.60;2.40;;;23.30;69.50;;;;;;6259594;28;84044;-70
2022/01/09 02:23:52;;;;;;;2.85;2.65;;;23.30;69.50;;;;;;6248427;28;84070;-69
2022/01/09 02:26:54;;;;;;;2.85;2.60;;;23.30;69.50;;;;;;6259241;28;83314;-70
2022/01/09 02:29:57;;;;;;;3.45;2.58;;;23.30;69.50;;;;;;6246478;27;84096;-68
2022/01/09 02:32:59;;;;;;;2.95;2.75;;;23.30;69.50;;;;;;6259856;28;82962;-70
2022/01/09 02:36:03;;;;;;;2.97;2.78;;;23.30;69.60;;;;;;6246369;28;84983;-69
2022/01/09 02:39:05;;;;;;;2.95;2.70;;;23.20;69.40;;;;;;6260212;28;84511;-70
2022/01/09 02:42:18;;;;;;;3.08;2.78;;;23.30;69.50;;;;;;6246622;28;84014;-70
2022/01/09 02:45:21;;;;;;;2.92;2.67;;;23.30;69.50;;;;;;6256985;28;83942;-70
2022/01/09 02:48:24;;;;;;;2.92;2.72;;;23.30;69.40;;;;;;6260146;28;84391;-70
2022/01/09 02:51:27;;;;;;;2.50;2.30;;;23.30;69.40;;;;;;6260107;28;84029;-70
2022/01/09 02:57:51;;;;;;;2.50;2.30;;;23.30;69.40;;;;;;6258206;27;81452;-69
2022/01/09 03:00:54;;;;;;;2.75;2.55;;;23.30;69.40;;;;;;6249001;28;84012;-70
2022/01/09 03:03:56;;;;;;;2.80;2.50;;;23.30;69.40;;;;;;6259737;28;84461;-69
2022/01/09 03:06:59;;;;;;;2.47;2.28;;;23.30;69.40;;;;;;6246213;28;85286;-70
2022/01/09 03:10:01;;;;;;;2.92;2.70;;;23.30;69.40;;;;;;6244117;28;84003;-69
2022/01/09 03:13:05;;;;;;;2.50;2.30;;;23.30;69.40;;;;;;6251690;28;82910;-69
2022/01/09 03:16:26;;;;;;;2.50;2.30;;;23.30;69.40;;;;;;6260562;28;84215;-68
2022/01/09 03:19:28;;;;;;;2.50;2.30;;;23.30;69.40;;;;;;6246561;28;83787;-69
2022/01/09 03:22:32;;;;;;;2.40;2.20;;;23.30;69.40;;;;;;6246984;28;84056;-69
2022/01/09 03:25:34;;;;;;;2.53;2.33;;;23.20;69.40;;;;;;6245386;27;84109;-69
2022/01/09 03:28:36;;;;;;;2.30;2.10;;;23.30;69.40;;;;;;6244373;28;83353;-69
2022/01/09 03:31:38;;;;;;;2.40;2.20;;;23.30;69.40;;;;;;6250765;28;84487;-70
2022/01/09 03:34:40;;;;;;;2.65;2.22;;;23.20;69.40;;;;;;6247380;28;83913;-70
2022/01/09 03:37:46;;;;;;;2.40;2.20;;;23.30;69.40;;;;;;6247966;28;84882;-69
2022/01/09 03:40:48;;;;;;;2.33;2.13;;;23.30;69.40;;;;;;6245880;28;84023;-70
2022/01/09 03:43:50;;;;;;;2.50;2.30;;;23.30;69.40;;;;;;6253169;28;84031;-68
2022/01/09 03:46:52;;;;;;;2.50;2.30;;;23.30;69.40;;;;;;6245770;27;84000;-69
2022/01/09 03:49:54;;;;;;;2.40;2.20;;;23.30;69.40;;;;;;6239638;28;84055;-70
2022/01/09 03:52:57;;;;;;;2.75;2.45;;;23.30;69.30;;;;;;6238536;28;84035;-68
2022/01/09 03:56:00;;;;;;;2.60;2.28;;;23.30;69.40;;;;;;6251340;28;84045;-70
2022/01/09 03:59:02;;;;;;;2.47;2.28;;;23.30;69.30;;;;;;6244562;28;83384;-68
2022/01/09 04:02:04;;;;;;;2.50;2.30;;;23.30;69.30;;;;;;6237821;28;83141;-69
2022/01/09 04:05:07;;;;;;;2.30;2.10;;;23.30;69.30;;;;;;6236277;28;82712;-70
2022/01/09 04:08:11;;;;;;;2.05;1.90;;;23.30;69.30;;;;;;6238559;28;85044;-70
2022/01/09 04:11:22;;;;;;;2.28;2.08;;;23.30;69.30;;;;;;6248341;28;84045;-69
2022/01/09 04:14:24;;;;;;;2.47;2.22;;;23.30;69.30;;;;;;6261453;28;84129;-70
2022/01/09 04:17:36;;;;;;;2.25;2.05;;;23.30;69.20;;;;;;6262561;28;84368;-68
2022/01/09 04:20:39;;;;;;;2.28;2.00;;;23.30;69.20;;;;;;6261326;28;84379;-68
2022/01/09 04:23:42;;;;;;;2.13;1.92;;;23.40;69.20;;;;;;6263430;27;82867;-69
2022/01/09 04:26:44;;;;;;;2.50;2.17;;;23.40;69.20;;;;;;6261346;28;84348;-69
2022/01/09 04:29:46;;;;;;;1.85;1.75;;;23.40;69.20;;;;;;6263458;28;83297;-69
2022/01/09 04:32:49;;;;;;;2.25;2.05;;;23.40;69.20;;;;;;6255463;28;84102;-70
2022/01/09 04:35:51;;;;;;;2.38;2.17;;;23.40;69.20;;;;;;6241272;28;84496;-69
2022/01/09 04:38:55;;;;;;;2.13;1.92;;;23.40;69.20;;;;;;6249954;28;85322;-70
2022/01/09 04:41:58;;;;;;;2.00;1.90;;;23.40;69.10;;;;;;6260657;28;84203;-69
2022/01/09 04:45:00;;;;;;;2.03;1.92;;;23.40;69.10;;;;;;6263341;27;84174;-70
2022/01/09 04:48:05;;;;;;;2.10;1.90;;;23.40;69.10;;;;;;6262186;28;84042;-69
2022/01/09 04:51:10;;;;;;;2.30;2.10;;;23.50;69.10;;;;;;6261464;28;84210;-69
2022/01/09 04:54:14;;;;;;;2.03;1.80;;;23.40;69.00;;;;;;6250990;27;83725;-70
2022/01/09 04:57:16;;;;;;;2.50;2.30;;;23.40;69.00;;;;;;6248176;28;83796;-70
2022/01/09 05:00:18;;;;;;;2.20;2.00;;;23.50;69.10;;;;;;6262753;28;83709;-69
2022/01/09 05:03:20;;;;;;;1.98;1.70;;;23.50;69.00;;;;;;6260744;27;84154;-69
2022/01/09 05:06:22;;;;;;;1.98;1.88;;;23.50;69.00;;;;;;6248386;27;84020;-70
2022/01/09 05:09:26;;;;;;;2.20;2.00;;;23.50;68.90;;;;;;6262124;28;85083;-69
2022/01/09 05:12:28;;;;;;;1.85;1.67;;;23.50;68.90;;;;;;6258768;27;84137;-70
2022/01/09 05:15:30;;;;;;;1.92;1.80;;;23.50;68.90;;;;;;6254286;28;84061;-69
2022/01/09 05:18:39;;;;;;;2.08;1.90;;;23.50;68.90;;;;;;6251444;28;84032;-70
2022/01/09 05:21:41;;;;;;;1.90;1.80;;;23.50;68.80;;;;;;6248022;28;82771;-70
2022/01/09 05:24:45;;;;;;;2.28;2.08;;;23.50;68.90;;;;;;6238327;28;84086;-70
2022/01/09 05:27:49;;;;;;;2.00;1.80;;;23.50;68.90;;;;;;6237372;28;84118;-69
2022/01/09 05:30:51;;;;;;;2.20;2.00;;;23.50;68.80;;;;;;6240299;28;83276;-68
2022/01/09 05:33:53;;;;;;;1.98;1.83;;;23.50;68.80;;;;;;6235272;28;84436;-70
2022/01/09 05:36:55;;;;;;;2.13;1.80;;;23.60;68.80;;;;;;6237109;28;83942;-69
2022/01/09 05:39:59;;;;;;;1.88;1.73;;;23.50;68.80;;;;;;6236191;28;85003;-68
2022/01/09 05:43:01;;;;;;;1.92;1.73;;;23.60;68.80;;;;;;6250137;28;84222;-69
2022/01/09 05:46:03;;;;;;;1.90;1.67;;;23.60;68.80;;;;;;6239624;28;86258;-69
2022/01/09 05:49:05;;;;;;;2.00;1.80;;;23.60;68.80;;;;;;6239464;28;82661;-69
2022/01/09 05:52:08;;;;;;;2.10;1.90;;;23.60;68.80;;;;;;6235280;28;82970;-69
2022/01/09 05:55:12;;;;;;;1.90;1.80;;;23.60;68.80;;;;;;6249356;28;83658;-69
2022/01/09 05:58:14;;;;;;;2.17;1.98;;;23.60;68.80;;;;;;6235102;28;84136;-69
2022/01/09 06:01:16;;;;;;;1.95;1.73;;;23.60;68.70;;;;;;6246674;28;83303;-69
2022/01/09 06:04:19;;;;;;;2.47;2.10;;;23.60;68.60;;;;;;6237154;28;84102;-68
2022/01/09 06:07:21;;;;;;;2.00;1.85;;;23.60;68.70;;;;;;6235157;28;84175;-70
2022/01/09 06:10:24;;;;;;;2.30;2.10;;;23.70;68.70;;;;;;6233681;28;85018;-69
2022/01/09 06:13:26;;;;;;;2.50;2.30;;;23.60;68.60;;;;;;6256440;28;84336;-69
2022/01/09 06:16:28;;;;;;;2.45;2.25;;;23.60;68.60;;;;;;6259134;27;82982;-69
2022/01/09 06:19:30;;;;;;;2.83;2.60;;;23.60;68.60;;;;;;6261665;28;84340;-70
2022/01/09 06:22:32;;;;;;;3.20;2.90;;;23.60;68.60;;;;;;6260139;27;83992;-68
2022/01/09 06:25:36;;;;;;;3.28;2.97;;;23.60;68.60;;;;;;6258905;28;84113;-68
2022/01/09 06:28:38;;;;;;;3.80;3.40;;;23.70;68.70;;;;;;6237529;28;84293;-70
2022/01/09 06:31:40;;;;;;;3.95;3.60;;;23.60;68.60;;;;;;6258423;28;83231;-69
2022/01/09 06:34:42;;;;;;;3.97;3.58;;;23.60;68.60;;;;;;6260587;27;84580;-69
2022/01/09 06:37:44;;;;;;;4.30;3.90;;;23.60;68.60;;;;;;6251198;28;84089;-69
2022/01/09 06:40:47;;;;;;;4.22;3.83;;;23.70;68.70;;;;;;6251808;28;83880;-70
2022/01/09 06:43:50;;;;;;;4.50;4.07;;;23.70;68.70;;;;;;6259110;28;84137;-70
2022/01/09 06:46:52;;;;;;;4.30;3.90;;;23.70;68.60;;;;;;6257936;28;83209;-70
2022/01/09 06:49:54;;;;;;;4.88;4.40;;;23.70;68.60;;;;;;6260511;28;84047;-70
2022/01/09 06:52:56;;;;;;;5.00;4.60;;;23.70;68.60;;;;;;6258857;28;84350;-69
2022/01/09 06:55:59;;;;;;;5.20;4.70;;;23.70;68.60;;;;;;6261495;28;85736;-69
2022/01/09 06:59:02;;;;;;;5.30;4.80;;;23.70;68.60;;;;;;6259145;28;83973;-70
2022/01/09 07:02:04;;;;;;;5.75;5.25;;;23.70;68.70;;;;;;6258393;28;83494;-69
2022/01/09 07:05:07;;;;;;;5.47;4.97;;;23.70;68.70;;;;;;6260819;28;82922;-70
2022/01/09 07:08:09;;;;;;;5.53;5.03;;;23.70;68.60;;;;;;6259421;28;83902;-69
2022/01/09 07:11:12;;;;;;;6.25;5.65;;;23.70;68.60;;;;;;6253527;28;85675;-70
2022/01/09 07:14:15;;;;;;;5.95;5.45;;;23.70;68.60;;;;;;6248620;28;84033;-69
2022/01/09 07:17:17;;;;;;;6.20;5.60;;;23.70;68.60;;;;;;6256589;28;84020;-69
2022/01/09 07:20:19;;;;;;;5.95;5.40;;;23.70;68.60;;;;;;6257154;28;83996;-69
2022/01/09 07:23:21;;;;;;;6.45;5.85;;;23.70;68.60;;;;;;6247343;27;84120;-69
2022/01/09 07:26:25;;;;;;;6.60;6.00;;;23.70;68.60;;;;;;6262667;28;83905;-69
2022/01/09 07:29:27;;;;;;;6.70;6.07;;;23.70;68.60;;;;;;6263844;28;84278;-68
2022/01/09 07:32:29;;;;;;;6.63;6.03;;;23.70;68.60;;;;;;6262446;27;83200;-69
2022/01/09 07:35:32;;;;;;;6.53;5.90;;;23.70;68.60;;;;;;6263852;28;82945;-69
2022/01/09 07:38:34;;;;;;;6.65;6.05;;;23.70;68.60;;;;;;6262834;28;82892;-68
2022/01/09 07:41:38;;;;;;;6.60;6.00;;;23.70;68.60;;;;;;6250271;28;84973;-69
2022/01/09 07:44:40;;;;;;;7.20;6.55;;;23.70;68.50;;;;;;6249955;28;84107;-69
2022/01/09 07:47:42;;;;;;;6.40;5.80;;;23.70;68.50;;;;;;6251299;28;84112;-69
2022/01/09 07:50:44;;;;;;;6.60;6.00;;;23.70;68.50;;;;;;6256637;28;84017;-69
2022/01/09 07:53:46;;;;;;;6.75;6.05;;;23.70;68.50;;;;;;6257845;28;84029;-69
2022/01/09 07:56:50;;;;;;;6.93;6.32;;;23.70;68.40;;;;;;6243512;28;84080;-69
2022/01/09 07:59:52;;;;;;;6.70;6.10;;;23.70;68.40;;;;;;6255651;28;83993;-70
2022/01/09 08:02:54;;;;;;;6.75;6.15;;;23.70;68.40;;;;;;6258931;28;82418;-69
2022/01/09 08:05:56;;;;;;;6.97;6.28;;;23.70;68.40;;;;;;6252305;28;84096;-69
2022/01/09 08:08:58;;;;;;;6.30;5.80;;;23.70;68.40;;;;;;6261988;28;82981;-70
2022/01/09 08:12:01;;;;;;;7.10;6.40;;;23.70;68.40;;;;;;6248184;28;85026;-70
2022/01/09 08:15:04;;;;;;;6.22;5.65;;;23.70;68.40;;;;;;6248707;28;84397;-69
2022/01/09 08:18:06;;;;;;;6.18;5.57;;;23.80;68.50;;;;;;6251772;28;84039;-68
2022/01/09 08:21:08;;;;;;;6.93;6.20;;;23.70;68.40;;;;;;6261576;27;84678;-69
2022/01/09 08:24:11;;;;;;;6.65;6.05;;;23.70;68.40;;;;;;6260485;28;84334;-69
2022/01/09 08:27:14;;;;;;;7.57;6.80;;;23.70;68.40;;;;;;6261901;28;83963;-69
2022/01/09 08:30:19;;;;;;;6.43;5.82;;;23.70;68.50;;;;;;6252371;28;84005;-69
2022/01/09 08:33:24;;;;;;;6.82;6.22;;;23.70;68.50;;;;;;6248179;27;83469;-68
2022/01/09 08:36:26;;;;;;;6.90;6.20;;;23.70;68.60;;;;;;6260077;27;82196;-70
2022/01/09 08:39:29;;;;;;;6.78;6.18;;;23.70;68.60;;;;;;6260455;28;82725;-69
2022/01/09 08:42:33;;;;;;;6.35;5.75;;;23.70;68.60;;;;;;6249061;27;83790;-69
2022/01/09 08:45:35;;;;;;;6.15;5.55;;;23.70;68.70;;;;;;6260090;27;84414;-69
2022/01/09 08:48:37;;;;;;;6.20;5.60;;;23.60;68.60;;;;;;6261845;28;84372;-68
2022/01/09 08:51:39;;;;;;;6.47;5.88;;;23.60;68.70;;;;;;6262271;28;84066;-69
2022/01/09 08:54:41;;;;;;;5.78;5.28;;;23.60;68.80;;;;;;6261279;28;84102;-69
2022/01/09 08:57:45;;;;;;;6.10;5.55;;;23.60;68.70;;;;;;6260315;28;84294;-69
2022/01/09 09:01:05;;;;;;;6.25;5.65;;;23.60;68.80;;;;;;6248972;28;84142;-69
2022/01/09 09:04:07;;;;;;;5.95;5.35;;;23.60;68.80;;;;;;6250288;28;83359;-69
2022/01/09 09:07:09;;;;;;;6.07;5.57;;;23.60;68.80;;;;;;6260932;28;84030;-69
2022/01/09 09:10:13;;;;;;;5.97;5.38;;;23.60;68.80;;;;;;6261235;28;84509;-70
2022/01/09 09:13:16;;;;;;;6.20;5.60;;;23.60;68.80;;;;;;6261546;28;84938;-69
2022/01/09 09:16:18;;;;;;;6.10;5.60;;;23.60;68.80;;;;;;6261019;28;82933;-69
2022/01/09 09:19:20;;;;;;;6.18;5.60;;;23.60;68.80;;;;;;6261943;28;82935;-68
2022/01/09 09:22:22;;;;;;;5.38;4.88;;;23.60;68.80;;;;;;6260110;28;84033;-69
2022/01/09 09:25:24;;;;;;;5.55;5.05;;;23.60;68.80;;;;;;6260868;27;82933;-70
2022/01/09 09:28:28;;;;;;;5.70;5.20;;;23.60;68.80;;;;;;6261970;28;84162;-68
2022/01/09 09:31:30;;;;;;;5.90;5.30;;;23.60;68.80;;;;;;6259819;28;82780;-70
2022/01/09 09:34:32;;;;;;;5.22;4.72;;;23.60;68.80;;;;;;6262388;28;83637;-70
2022/01/09 09:37:35;;;;;;;5.45;4.95;;;23.60;68.80;;;;;;6260708;27;82964;-69
2022/01/09 09:40:37;;;;;;;6.00;5.15;;;23.60;68.80;;;;;;6260360;28;82903;-70
2022/01/09 09:43:40;;;;;;;5.18;4.72;;;23.60;68.80;;;;;;6257463;28;85070;-70
2022/01/09 09:46:48;;;;;;;5.45;4.95;;;23.60;68.80;;;;;;6250088;28;83960;-69
2022/01/09 09:49:50;;;;;;;5.30;4.80;;;23.70;68.90;;;;;;6259901;28;82881;-70
2022/01/09 09:52:52;;;;;;;5.30;4.80;;;23.60;68.80;;;;;;6262369;28;84120;-69
2022/01/09 09:55:55;;;;;;;4.63;4.22;;;23.70;68.90;;;;;;6249072;28;84172;-69
2022/01/09 09:59:00;;;;;;;5.28;4.80;;;23.70;68.90;;;;;;6259712;28;84277;-69
2022/01/09 10:02:09;;;;;;;4.95;4.50;;;23.60;68.80;;;;;;6259685;28;84084;-69
2022/01/09 10:05:13;;;;;;;5.15;4.57;;;23.70;68.90;;;;;;6260336;28;82235;-69
2022/01/09 10:08:16;;;;;;;4.80;4.40;;;23.70;68.90;;;;;;6261848;28;84187;-69
2022/01/09 10:11:21;;;;;;;5.03;4.63;;;23.70;68.80;;;;;;6260834;28;84083;-68
2022/01/09 10:14:27;;;;;;;4.45;4.05;;;23.70;68.90;;;;;;6261348;28;84869;-67
2022/01/09 10:17:30;;;;;;;4.63;4.22;;;23.70;68.90;;;;;;6247313;28;83923;-69
2022/01/09 10:20:33;;;;;;;5.47;4.95;;;23.70;68.80;;;;;;6261430;28;84085;-69
2022/01/09 10:23:35;;;;;;;4.75;4.35;;;23.70;68.90;;;;;;6238718;28;83020;-68
2022/01/09 10:26:39;;;;;;;4.70;4.30;;;23.70;68.90;;;;;;6255329;28;83875;-69
2022/01/09 10:29:50;;;;;;;4.47;4.07;;;23.70;68.80;;;;;;6260138;28;84065;-69
2022/01/09 10:32:56;;;;;;;4.80;4.30;;;23.70;68.80;;;;;;6248081;28;83751;-69
2022/01/09 10:35:58;;;;;;;4.47;4.07;;;23.70;68.80;;;;;;6256803;28;83366;-69
2022/01/09 10:39:04;;;;;;;4.50;4.10;;;23.70;68.80;;;;;;6259405;28;83970;-69
2022/01/09 10:42:07;;;;;;;4.00;3.67;;;23.70;68.80;;;;;;6260005;28;84280;-68
2022/01/09 10:45:36;;;;;;;4.40;4.00;;;23.70;68.80;;;;;;6258794;27;83821;-69
2022/01/09 10:48:41;;;;;;;4.00;3.70;;;23.70;68.80;;;;;;6246715;28;84182;-69
2022/01/09 10:51:43;;;;;;;4.25;3.85;;;23.80;68.90;;;;;;6259507;28;84005;-69
2022/01/09 10:54:47;;;;;;;4.00;3.70;;;23.80;68.80;;;;;;6260551;28;84399;-68
2022/01/09 10:57:49;;;;;;;3.67;3.38;;;23.80;68.80;;;;;;6261465;27;84057;-69
2022/01/09 11:01:08;;;;;;;3.95;3.65;;;23.80;68.80;;;;;;6239357;28;82038;-70
2022/01/09 11:04:10;;;;;;;3.83;3.50;;;23.80;68.80;;;;;;6252582;28;82947;-70
2022/01/09 11:07:13;;;;;;;4.00;3.60;;;23.80;68.80;;;;;;6249277;28;83458;-70
2022/01/09 11:10:17;;;;;;;3.70;3.40;;;23.80;68.80;;;;;;6263780;27;84108;-69
2022/01/09 11:13:19;;;;;;;3.78;3.47;;;23.80;68.80;;;;;;6263516;28;82898;-69
2022/01/09 11:16:34;;;;;;;3.60;3.30;;;23.80;68.80;;;;;;6262873;28;85276;-69
2022/01/09 11:19:39;;;;;;;3.53;3.22;;;23.80;68.80;;;;;;6262965;28;83929;-69
2022/01/09 11:22:42;;;;;;;3.60;3.30;;;23.80;68.80;;;;;;6263279;28;84037;-69
2022/01/09 11:25:49;;;;;;;3.33;3.03;;;23.80;68.80;;;;;;6239392;28;84548;-70
2022/01/09 11:28:53;;;;;;;3.50;3.20;;;23.80;68.80;;;;;;6250259;28;84168;-70
2022/01/09 11:32:07;;;;;;;3.80;3.45;;;23.80;68.80;;;;;;6240544;28;83008;-70
2022/01/09 11:35:18;;;;;;;3.50;3.20;;;23.80;68.80;;;;;;6249435;28;83960;-69
2022/01/09 11:38:26;;;;;;;3.33;3.03;;;23.90;68.90;;;;;;6250022;27;83265;-69
2022/01/09 11:41:30;;;;;;;3.88;3.17;;;23.80;68.80;;;;;;6250225;28;84145;-69
2022/01/09 11:44:33;;;;;;;3.35;3.05;;;23.80;68.80;;;;;;6251140;28;84146;-69
2022/01/09 11:47:50;;;;;;;3.33;3.03;;;23.80;68.80;;;;;;6258392;28;84962;-68
2022/01/09 11:51:14;;;;;;;3.38;3.08;;;23.80;68.80;;;;;;6254763;27;83242;-69
2022/01/09 11:54:18;;;;;;;3.28;3.00;;;23.90;68.90;;;;;;6261652;28;84168;-68
2022/01/09 11:57:36;;;;;;;3.30;3.00;;;23.80;68.70;;;;;;6264025;28;84379;-69
2022/01/09 12:00:40;;;;;;;3.00;2.78;;;23.90;68.80;;;;;;6238783;28;82911;-69
2022/01/09 12:03:44;;;;;;;3.15;2.85;;;23.80;68.70;;;;;;6248401;28;84157;-69
2022/01/09 12:06:46;;;;;;;3.13;2.90;;;23.90;68.80;;;;;;6261347;27;84165;-69
2022/01/09 12:09:50;;;;;;;3.03;2.80;;;23.80;68.70;;;;;;6249170;28;83297;-69
2022/01/09 12:12:53;;;;;;;2.85;2.65;;;23.80;68.70;;;;;;6262075;28;84264;-69
2022/01/09 12:15:55;;;;;;;3.10;2.80;;;23.80;68.70;;;;;;6249335;28;84006;-69
2022/01/09 12:18:58;;;;;;;3.08;2.88;;;23.90;68.80;;;;;;6251977;28;85073;-69
2022/01/09 12:22:00;;;;;;;2.88;2.58;;;23.80;68.70;;;;;;6258813;28;84386;-69
2022/01/09 12:25:02;;;;;;;3.10;2.80;;;23.80;68.60;;;;;;6263798;28;84284;-70
2022/01/09 12:28:06;;;;;;;2.72;2.53;;;23.80;68.60;;;;;;6249814;28;84239;-69
2022/01/09 12:31:08;;;;;;;3.10;2.80;;;23.80;68.60;;;;;;6248339;27;83925;-70
2022/01/09 12:34:13;;;;;;;2.80;2.60;;;23.90;68.60;;;;;;6262943;28;84333;-69
2022/01/09 12:37:15;;;;;;;3.20;2.92;;;23.80;68.60;;;;;;6262331;28;84550;-69
2022/01/09 12:40:18;;;;;;;2.80;2.60;;;23.80;68.60;;;;;;6262621;28;82466;-69
2022/01/09 12:43:23;;;;;;;2.85;2.63;;;23.90;68.60;;;;;;6260905;28;84022;-69
2022/01/09 12:46:26;;;;;;;2.67;2.47;;;23.90;68.60;;;;;;6237235;28;84054;-69
2022/01/09 12:49:30;;;;;;;2.78;2.58;;;23.80;68.60;;;;;;6262044;28;85327;-69
2022/01/09 12:52:32;;;;;;;2.70;2.50;;;23.90;68.60;;;;;;6262182;28;83854;-69
2022/01/09 12:55:36;;;;;;;2.72;2.53;;;23.90;68.60;;;;;;6260954;28;84201;-69
2022/01/09 12:58:40;;;;;;;2.28;2.08;;;23.90;68.60;;;;;;6255163;27;84089;-69
2022/01/09 13:01:44;;;;;;;2.83;2.63;;;23.90;68.60;;;;;;6249052;28;84332;-69
2022/01/09 13:04:48;;;;;;;3.00;2.47;;;23.90;68.60;;;;;;6254110;28;84096;-69
2022/01/09 13:07:57;;;;;;;2.83;2.47;;;23.80;68.50;;;;;;6261238;28;82923;-70
2022/01/09 13:11:02;;;;;;;2.70;2.50;;;23.90;68.60;;;;;;6260747;28;82372;-69
2022/01/09 13:14:06;;;;;;;2.80;2.50;;;23.90;68.60;;;;;;6261252;27;83879;-69
2022/01/09 13:17:08;;;;;;;2.85;2.65;;;23.90;68.60;;;;;;6239797;28;84118;-70
2022/01/09 13:20:19;;;;;;;2.50;2.30;;;23.90;68.60;;;;;;6254828;28;85025;-69
2022/01/09 13:23:21;;;;;;;2.40;2.20;;;23.90;68.60;;;;;;6248820;28;82945;-69
2022/01/09 13:26:24;;;;;;;2.45;2.25;;;23.90;68.60;;;;;;6262023;28;82957;-68
2022/01/09 13:29:28;;;;;;;2.70;2.50;;;23.90;68.60;;;;;;6259471;28;84375;-69
2022/01/09 13:32:30;;;;;;;2.45;2.22;;;23.90;68.60;;;;;;6258302;28;84050;-69
2022/01/09 13:35:34;;;;;;;2.40;2.20;;;23.90;68.60;;;;;;6249565;28;84065;-68
2022/01/09 13:38:37;;;;;;;2.20;2.00;;;23.90;68.60;;;;;;6248297;28;83309;-69
2022/01/09 13:41:42;;;;;;;2.30;2.10;;;23.90;68.60;;;;;;6263043;27;82341;-69
2022/01/09 13:44:45;;;;;;;2.10;1.95;;;23.90;68.60;;;;;;6261263;28;85495;-70
2022/01/09 13:47:49;;;;;;;2.50;2.30;;;23.90;68.60;;;;;;6262249;27;84101;-70
2022/01/09 13:50:53;;;;;;;2.08;1.88;;;23.90;68.60;;;;;;6257888;27;83975;-69
2022/01/09 13:54:04;;;;;;;2.35;2.15;;;23.90;68.60;;;;;;6252797;27;83302;-67
2022/01/09 13:57:09;;;;;;;2.17;2.00;;;23.90;68.80;;;;;;6246041;28;83993;-67
2022/01/09 14:00:13;;;;;;;2.05;1.85;;;23.90;68.90;;;;;;6255662;28;84163;-67
2022/01/09 14:03:26;;;;;;;2.40;1.95;;;23.90;68.70;;;;;;6260996;27;82992;-68
2022/01/09 14:06:29;;;;;;;2.38;2.00;;;23.90;69.10;;;;;;6258725;28;84001;-68
2022/01/09 14:09:33;;;;;;;2.85;1.95;;;23.90;68.40;;;;;;6255601;28;84174;-67
2022/01/09 14:12:37;;;;;;;2.40;2.00;;;23.90;68.40;;;;;;6252248;28;83324;-67
2022/01/09 14:15:40;;;;;;;2.00;1.80;;;23.90;68.40;;;;;;6234033;28;83945;-67
2022/01/09 14:18:43;;;;;;;2.53;1.98;;;23.90;68.30;;;;;;6256042;28;83858;-68
2022/01/09 14:21:54;;;;;;;2.20;2.00;;;23.90;68.20;;;;;;6254816;28;85099;-67
2022/01/09 14:24:58;;;;;;;1.80;1.70;;;23.90;68.30;;;;;;6234425;28;84232;-68
2022/01/09 14:28:02;;;;;;;1.70;1.50;;;23.90;68.20;;;;;;6251290;28;84090;-67
2022/01/09 14:31:05;;;;;;;2.55;2.10;;;23.90;68.20;;;;;;6253358;27;84141;-68
2022/01/09 14:34:08;;;;;;;1.80;1.70;;;23.90;68.10;;;;;;6255646;28;83400;-68
2022/01/09 14:37:14;;;;;;;2.17;1.85;;;23.90;68.10;;;;;;6252502;27;84319;-68
2022/01/09 14:40:18;;;;;;;2.00;1.80;;;23.90;69.00;;;;;;6255144;28;84025;-67
2022/01/09 14:43:24;;;;;;;1.92;1.63;;;23.90;68.10;;;;;;6256099;28;82876;-67
2022/01/09 14:46:26;;;;;;;1.98;1.80;;;23.90;68.90;;;;;;6241798;28;83821;-68
2022/01/09 14:49:28;;;;;;;1.83;1.60;;;23.90;67.90;;;;;;6254763;28;84463;-68
2022/01/09 14:52:32;;;;;;;2.80;1.77;;;23.90;67.70;;;;;;6253501;28;85436;-67
2022/01/09 14:55:34;;;;;;;2.25;1.77;;;23.90;67.70;;;;;;6255940;28;84038;-68
2022/01/09 14:58:36;;;;;;;1.90;1.70;;;23.90;67.60;;;;;;6252305;28;84122;-67
2022/01/09 15:01:38;;;;;;;2.20;1.80;;;23.90;67.60;;;;;;6253960;28;84004;-67
2022/01/09 15:04:59;;;;;;;1.92;1.70;;;23.90;67.70;;;;;;6253178;28;84054;-67
2022/01/09 15:08:03;;;;;;;1.70;1.60;;;23.90;67.60;;;;;;6254460;28;84012;-68
2022/01/09 15:11:07;;;;;;;2.35;1.95;;;23.90;67.70;;;;;;6256553;28;84159;-67
2022/01/09 15:14:09;;;;;;;2.03;1.60;;;23.90;67.60;;;;;;6256174;28;83259;-68
2022/01/09 15:17:11;;;;;;;2.08;1.73;;;23.90;67.60;;;;;;6255029;27;84076;-68
2022/01/09 15:20:32;;;;;;;2.55;1.70;;;23.90;67.60;;;;;;6245609;28;82574;-68
2022/01/09 15:23:36;;;;;;;1.73;1.40;;;23.90;67.60;;;;;;6256233;28;84900;-67
2022/01/09 15:26:38;;;;;;;2.10;1.70;;;23.90;67.60;;;;;;6255341;28;84087;-68
2022/01/09 15:29:40;;;;;;;1.95;1.60;;;23.90;67.70;;;;;;6254458;28;84026;-68
2022/01/09 15:32:42;;;;;;;2.00;1.55;;;23.90;67.80;;;;;;6256138;28;84001;-68
2022/01/09 15:35:46;;;;;;;2.22;1.60;;;23.90;67.80;;;;;;6256026;27;83112;-68
2022/01/09 15:38:49;;;;;;;1.70;1.50;;;23.90;67.90;;;;;;6252604;28;83959;-68
2022/01/09 15:41:52;;;;;;;2.10;1.60;;;23.90;67.90;;;;;;6255559;28;84007;-67
2022/01/09 15:44:54;;;;;;;1.80;1.60;;;23.90;68.00;;;;;;6257926;27;83279;-67
2022/01/09 15:47:56;;;;;;;4.28;1.75;;;23.90;68.10;;;;;;6258482;28;84031;-68
2022/01/09 15:50:59;;;;;;;2.88;1.70;;;23.90;68.20;;;;;;6249263;28;82647;-68
2022/01/09 15:54:03;;;;;;;2.03;1.70;;;23.90;68.30;;;;;;6258552;28;85307;-69
2022/01/09 15:57:05;;;;;;;1.92;1.63;;;23.90;68.30;;;;;;6249735;28;84055;-67
2022/01/09 16:00:09;;;;;;;2.85;1.65;;;23.90;68.40;;;;;;6250311;28;84078;-69